createdAt,value
2022-08-27T00:00:46.609Z,3.50
2022-08-27T00:01:46.665Z,3.50
2022-08-27T00:02:46.613Z,3.50
2022-08-27T00:03:46.643Z,3.80
2022-08-27T00:04:46.552Z,3.80
2022-08-27T00:05:46.529Z,3.80
2022-08-27T00:06:46.549Z,3.60
2022-08-27T00:07:46.508Z,4.10
2022-08-27T00:08:46.491Z,4.00
2022-08-27T00:09:46.510Z,3.80
2022-08-27T00:10:46.465Z,3.70
2022-08-27T00:11:46.450Z,4.80
2022-08-27T00:12:46.437Z,3.90
2022-08-27T00:13:46.419Z,3.80
2022-08-27T00:14:46.457Z,3.70
2022-08-27T00:15:46.394Z,4.00
2022-08-27T00:16:46.501Z,3.80
2022-08-27T00:17:46.399Z,3.90
2022-08-27T00:18:47.889Z,3.80
2022-08-27T00:19:46.363Z,3.90
2022-08-27T00:20:46.332Z,3.90
2022-08-27T00:21:46.311Z,4.30
2022-08-27T00:22:46.329Z,4.00
2022-08-27T00:23:46.288Z,5.20
2022-08-27T00:24:49.050Z,4.30
2022-08-27T00:25:46.302Z,4.30
2022-08-27T00:26:46.244Z,4.40
2022-08-27T00:27:46.253Z,5.20
2022-08-27T00:28:46.242Z,4.20
2022-08-27T00:29:46.214Z,4.20
2022-08-27T00:30:46.192Z,4.10
2022-08-27T00:31:46.275Z,5.20
2022-08-27T00:32:46.208Z,5.30
2022-08-27T00:33:46.153Z,5.20
2022-08-27T00:34:46.163Z,4.30
2022-08-27T00:35:46.132Z,4.60
2022-08-27T00:36:46.116Z,4.60
2022-08-27T00:37:46.100Z,4.20
2022-08-27T00:38:46.073Z,3.90
2022-08-27T00:39:46.096Z,4.30
2022-08-27T00:40:46.059Z,4.40
2022-08-27T00:41:46.049Z,4.80
2022-08-27T00:42:46.109Z,4.20
2022-08-27T00:43:46.045Z,4.40
2022-08-27T00:44:46.004Z,4.30
2022-08-27T00:45:46.041Z,4.10
2022-08-27T00:46:45.977Z,4.50
2022-08-27T00:47:45.989Z,4.30
2022-08-27T00:48:45.957Z,4.40
2022-08-27T00:49:45.936Z,4.40
2022-08-27T00:50:45.936Z,5.90
2022-08-27T00:51:45.935Z,4.50
2022-08-27T00:52:45.892Z,4.40
2022-08-27T00:53:45.877Z,4.20
2022-08-27T00:54:45.936Z,4.60
2022-08-27T00:55:45.850Z,4.40
2022-08-27T00:56:51.776Z,6.10
2022-08-27T00:57:45.829Z,5.10
2022-08-27T00:58:45.806Z,5.50
2022-08-27T00:59:45.798Z,6.30
2022-08-27T01:00:45.828Z,5.90
2022-08-27T01:01:45.840Z,6.30
2022-08-27T01:02:45.765Z,7.00
2022-08-27T01:03:45.744Z,5.50
2022-08-27T01:04:45.763Z,5.00
2022-08-27T01:05:45.740Z,4.90
2022-08-27T01:06:45.704Z,4.70
2022-08-27T01:07:45.696Z,5.80
2022-08-27T01:08:45.670Z,5.70
2022-08-27T01:09:45.662Z,5.30
2022-08-27T01:10:45.665Z,5.30
2022-08-27T01:11:45.636Z,4.50
2022-08-27T01:12:45.620Z,4.60
2022-08-27T01:14:00.102Z,5.00
2022-08-27T01:14:45.616Z,4.60
2022-08-27T01:15:45.604Z,4.90
2022-08-27T01:16:45.650Z,5.70
2022-08-27T01:17:45.573Z,5.50
2022-08-27T01:18:45.541Z,6.10
2022-08-27T01:19:45.527Z,7.00
2022-08-27T01:20:45.505Z,4.90
2022-08-27T01:21:45.526Z,4.90
2022-08-27T01:22:45.485Z,4.90
2022-08-27T01:23:45.490Z,4.90
2022-08-27T01:24:45.582Z,4.40
2022-08-27T01:25:45.434Z,5.00
2022-08-27T01:26:45.428Z,4.90
2022-08-27T01:27:45.449Z,4.60
2022-08-27T01:28:45.395Z,4.90
2022-08-27T01:29:45.424Z,4.90
2022-08-27T01:30:45.372Z,4.60
2022-08-27T01:31:45.394Z,4.70
2022-08-27T01:32:45.341Z,5.00
2022-08-27T01:33:45.367Z,4.90
2022-08-27T01:34:45.318Z,5.10
2022-08-27T01:35:45.305Z,4.90
2022-08-27T01:36:45.288Z,5.60
2022-08-27T01:37:45.281Z,4.90
2022-08-27T01:38:45.276Z,4.70
2022-08-27T01:39:45.253Z,5.00
2022-08-27T01:40:45.239Z,5.40
2022-08-27T01:41:45.250Z,4.90
2022-08-27T01:42:45.205Z,4.50
2022-08-27T01:43:45.254Z,4.70
2022-08-27T01:44:45.189Z,4.60
2022-08-27T01:45:45.192Z,4.70
2022-08-27T01:46:45.202Z,5.10
2022-08-27T01:47:45.166Z,4.80
2022-08-27T01:48:45.128Z,5.00
2022-08-27T01:49:45.111Z,5.10
2022-08-27T01:50:45.118Z,4.90
2022-08-27T01:51:45.095Z,5.00
2022-08-27T01:52:45.069Z,6.00
2022-08-27T01:53:45.100Z,5.10
2022-08-27T01:54:45.049Z,5.30
2022-08-27T01:55:47.656Z,5.40
2022-08-27T01:56:45.050Z,5.00
2022-08-27T01:57:45.034Z,5.50
2022-08-27T01:58:45.014Z,6.30
2022-08-27T01:59:44.980Z,4.80
2022-08-27T02:00:45.047Z,5.00
2022-08-27T02:01:45.050Z,4.70
2022-08-27T02:02:44.934Z,4.80
2022-08-27T02:03:44.958Z,5.10
2022-08-27T02:04:44.901Z,5.40
2022-08-27T02:05:45.247Z,4.90
2022-08-27T02:06:44.885Z,5.60
2022-08-27T02:07:44.893Z,5.20
2022-08-27T02:08:44.883Z,4.80
2022-08-27T02:09:44.845Z,5.40
2022-08-27T02:10:44.816Z,4.80
2022-08-27T02:11:45.014Z,4.70
2022-08-27T02:12:44.822Z,5.30
2022-08-27T02:13:44.821Z,5.50
2022-08-27T02:14:44.775Z,5.00
2022-08-27T02:15:44.760Z,5.20
2022-08-27T02:16:52.204Z,5.60
2022-08-27T02:17:44.781Z,5.60
2022-08-27T02:18:44.749Z,4.40
2022-08-27T02:19:44.716Z,5.20
2022-08-27T02:20:44.716Z,4.80
2022-08-27T02:21:44.678Z,4.70
2022-08-27T02:22:44.676Z,4.70
2022-08-27T02:23:44.685Z,5.60
2022-08-27T02:24:44.655Z,5.00
2022-08-27T02:25:44.630Z,5.40
2022-08-27T02:26:44.611Z,5.20
2022-08-27T02:27:44.598Z,5.00
2022-08-27T02:28:44.608Z,5.20
2022-08-27T02:29:44.573Z,5.20
2022-08-27T02:30:44.559Z,4.80
2022-08-27T02:31:44.648Z,5.70
2022-08-27T02:32:44.538Z,6.20
2022-08-27T02:33:44.561Z,5.30
2022-08-27T02:34:44.526Z,5.00
2022-08-27T02:35:44.520Z,5.00
2022-08-27T02:36:44.473Z,5.10
2022-08-27T02:37:44.467Z,5.10
2022-08-27T02:38:44.472Z,5.40
2022-08-27T02:39:46.173Z,5.10
2022-08-27T02:40:44.425Z,5.10
2022-08-27T02:41:44.415Z,5.10
2022-08-27T02:42:44.422Z,5.90
2022-08-27T02:43:44.415Z,6.10
2022-08-27T02:44:44.384Z,5.70
2022-08-27T02:45:44.384Z,5.50
2022-08-27T02:46:44.410Z,7.20
2022-08-27T02:47:44.340Z,5.50
2022-08-27T02:48:44.313Z,5.10
2022-08-27T02:49:44.307Z,5.20
2022-08-27T02:50:44.311Z,5.20
2022-08-27T02:51:44.277Z,5.20
2022-08-27T02:52:44.267Z,4.90
2022-08-27T02:53:44.246Z,5.20
2022-08-27T02:54:44.238Z,5.20
2022-08-27T02:55:44.249Z,5.00
2022-08-27T02:56:44.198Z,5.30
2022-08-27T02:57:44.202Z,5.50
2022-08-27T02:58:44.188Z,6.30
2022-08-27T02:59:44.188Z,5.30
2022-08-27T03:00:44.185Z,6.40
2022-08-27T03:01:44.271Z,5.70
2022-08-27T03:02:44.186Z,5.70
2022-08-27T03:03:44.123Z,5.30
2022-08-27T03:04:44.110Z,5.40
2022-08-27T03:05:44.117Z,5.20
2022-08-27T03:06:44.082Z,6.30
2022-08-27T03:07:44.090Z,5.40
2022-08-27T03:08:53.248Z,5.70
2022-08-27T03:09:44.040Z,5.60
2022-08-27T03:10:44.047Z,5.70
2022-08-27T03:11:44.043Z,7.30
2022-08-27T03:12:44.022Z,5.30
2022-08-27T03:13:43.977Z,5.50
2022-08-27T03:14:43.969Z,5.60
2022-08-27T03:15:43.980Z,5.80
2022-08-27T03:16:43.947Z,5.30
2022-08-27T03:17:43.933Z,5.20
2022-08-27T03:18:43.897Z,5.40
2022-08-27T03:19:43.906Z,5.40
2022-08-27T03:20:43.877Z,5.20
2022-08-27T03:21:43.895Z,5.20
2022-08-27T03:22:43.891Z,6.00
2022-08-27T03:23:43.848Z,6.50
2022-08-27T03:24:43.833Z,5.30
2022-08-27T03:25:43.814Z,5.00
2022-08-27T03:26:52.622Z,5.60
2022-08-27T03:27:43.822Z,6.20
2022-08-27T03:28:43.811Z,8.60
2022-08-27T03:29:43.768Z,5.10
2022-08-27T03:30:43.780Z,5.50
2022-08-27T03:31:43.783Z,5.90
2022-08-27T03:32:43.716Z,5.40
2022-08-27T03:33:43.731Z,5.40
2022-08-27T03:34:43.691Z,5.60
2022-08-27T03:35:43.672Z,7.00
2022-08-27T03:36:43.659Z,5.50
2022-08-27T03:37:43.681Z,5.20
2022-08-27T03:38:43.633Z,7.00
2022-08-27T03:39:43.632Z,6.50
2022-08-27T03:40:43.642Z,6.60
2022-08-27T03:41:54.078Z,5.60
2022-08-27T03:42:43.626Z,5.40
2022-08-27T03:43:43.572Z,5.50
2022-08-27T03:44:43.577Z,5.60
2022-08-27T03:46:00.337Z,6.30
2022-08-27T03:46:43.566Z,5.50
2022-08-27T03:47:43.554Z,5.90
2022-08-27T03:48:43.527Z,6.60
2022-08-27T03:49:43.489Z,5.80
2022-08-27T03:50:43.472Z,5.90
2022-08-27T03:51:43.461Z,5.80
2022-08-27T03:52:43.440Z,6.20
2022-08-27T03:53:43.460Z,6.00
2022-08-27T03:54:43.439Z,5.90
2022-08-27T03:55:43.421Z,5.30
2022-08-27T03:56:43.393Z,5.90
2022-08-27T03:57:43.378Z,5.90
2022-08-27T03:58:43.407Z,5.80
2022-08-27T03:59:43.355Z,5.60
2022-08-27T04:00:43.336Z,6.10
2022-08-27T04:01:43.439Z,5.90
2022-08-27T04:02:43.410Z,5.80
2022-08-27T04:03:43.300Z,7.10
2022-08-27T04:04:43.303Z,5.90
2022-08-27T04:05:45.224Z,5.80
2022-08-27T04:06:43.258Z,5.80
2022-08-27T04:07:43.260Z,5.80
2022-08-27T04:08:43.232Z,6.20
2022-08-27T04:09:43.244Z,5.50
2022-08-27T04:10:43.211Z,6.10
2022-08-27T04:11:43.193Z,6.50
2022-08-27T04:12:43.174Z,5.90
2022-08-27T04:13:43.166Z,6.10
2022-08-27T04:14:43.153Z,5.90
2022-08-27T04:15:43.204Z,5.50
2022-08-27T04:16:43.149Z,6.00
2022-08-27T04:17:43.113Z,5.90
2022-08-27T04:18:43.085Z,5.70
2022-08-27T04:19:43.107Z,5.90
2022-08-27T04:20:43.065Z,6.10
2022-08-27T04:21:43.050Z,6.00
2022-08-27T04:22:43.092Z,6.00
2022-08-27T04:23:43.034Z,6.10
2022-08-27T04:24:43.017Z,7.20
2022-08-27T04:25:42.996Z,7.20
2022-08-27T04:26:42.982Z,6.20
2022-08-27T04:27:42.997Z,5.90
2022-08-27T04:28:42.959Z,6.20
2022-08-27T04:29:42.988Z,8.90
2022-08-27T04:30:42.972Z,7.00
2022-08-27T04:31:42.974Z,7.00
2022-08-27T04:32:42.930Z,10.30
2022-08-27T04:33:42.920Z,8.60
2022-08-27T04:34:42.885Z,8.60
2022-08-27T04:35:42.901Z,11.70
2022-08-27T04:36:42.876Z,9.90
2022-08-27T04:37:42.859Z,8.80
2022-08-27T04:38:42.825Z,7.90
2022-08-27T04:39:42.804Z,9.90
2022-08-27T04:40:42.803Z,8.90
2022-08-27T04:41:42.782Z,10.10
2022-08-27T04:42:42.790Z,9.40
2022-08-27T04:43:42.754Z,8.60
2022-08-27T04:44:42.747Z,9.00
2022-08-27T04:45:42.754Z,9.70
2022-08-27T04:46:43.091Z,9.50
2022-08-27T04:47:42.725Z,8.30
2022-08-27T04:48:42.690Z,9.60
2022-08-27T04:49:42.673Z,10.30
2022-08-27T04:50:42.663Z,10.00
2022-08-27T04:51:42.643Z,9.10
2022-08-27T04:52:42.657Z,7.40
2022-08-27T04:53:42.612Z,8.00
2022-08-27T04:54:42.653Z,8.00
2022-08-27T04:55:42.592Z,9.70
2022-08-27T04:56:42.583Z,8.50
2022-08-27T04:57:42.589Z,9.80
2022-08-27T04:58:42.578Z,8.90
2022-08-27T04:59:42.539Z,8.30
2022-08-27T05:00:42.569Z,9.40
2022-08-27T05:01:42.600Z,9.70
2022-08-27T05:02:42.499Z,8.70
2022-08-27T05:03:42.515Z,7.90
2022-08-27T05:04:42.588Z,8.30
2022-08-27T05:05:42.817Z,7.90
2022-08-27T05:06:42.446Z,10.80
2022-08-27T05:07:42.431Z,9.00
2022-08-27T05:08:42.441Z,8.60
2022-08-27T05:09:42.406Z,8.50
2022-08-27T05:10:42.390Z,8.60
2022-08-27T05:11:42.381Z,8.30
2022-08-27T05:12:42.360Z,8.20
2022-08-27T05:13:42.369Z,8.30
2022-08-27T05:14:42.339Z,8.70
2022-08-27T05:15:42.360Z,8.00
2022-08-27T05:16:42.312Z,8.10
2022-08-27T05:17:42.296Z,7.80
2022-08-27T05:18:48.384Z,7.70
2022-08-27T05:19:42.271Z,9.50
2022-08-27T05:20:42.284Z,10.10
2022-08-27T05:21:42.246Z,9.10
2022-08-27T05:22:42.226Z,9.00
2022-08-27T05:23:42.212Z,10.50
2022-08-27T05:24:42.207Z,8.40
2022-08-27T05:25:42.217Z,8.40
2022-08-27T05:26:42.211Z,8.80
2022-08-27T05:27:42.157Z,8.40
2022-08-27T05:28:42.160Z,9.90
2022-08-27T05:29:42.133Z,12.00
2022-08-27T05:30:42.187Z,9.20
2022-08-27T05:31:42.237Z,10.20
2022-08-27T05:32:42.100Z,8.10
2022-08-27T05:33:42.107Z,10.00
2022-08-27T05:34:42.070Z,9.80
2022-08-27T05:35:42.067Z,8.90
2022-08-27T05:36:48.098Z,10.70
2022-08-27T05:37:42.158Z,10.90
2022-08-27T05:38:42.022Z,8.90
2022-08-27T05:39:42.003Z,9.90
2022-08-27T05:40:41.995Z,8.90
2022-08-27T05:41:41.976Z,8.80
2022-08-27T05:42:41.983Z,8.70
2022-08-27T05:43:43.675Z,8.30
2022-08-27T05:44:42.267Z,8.70
2022-08-27T05:45:41.920Z,10.70
2022-08-27T05:46:41.981Z,10.30
2022-08-27T05:47:44.460Z,8.80
2022-08-27T05:48:41.904Z,9.00
2022-08-27T05:49:41.868Z,9.00
2022-08-27T05:50:41.860Z,11.20
2022-08-27T05:51:41.870Z,9.00
2022-08-27T05:52:41.819Z,9.70
2022-08-27T05:53:41.832Z,10.20
2022-08-27T05:54:41.796Z,9.80
2022-08-27T05:55:41.785Z,8.30
2022-08-27T05:56:41.773Z,8.70
2022-08-27T05:57:41.780Z,7.80
2022-08-27T05:58:41.747Z,9.10
2022-08-27T05:59:41.750Z,8.10
2022-08-27T06:00:41.723Z,8.90
2022-08-27T06:01:41.719Z,8.70
2022-08-27T06:02:41.777Z,7.80
2022-08-27T06:03:41.673Z,8.10
2022-08-27T06:04:41.684Z,7.40
2022-08-27T06:05:41.700Z,7.70
2022-08-27T06:06:41.633Z,8.40
2022-08-27T06:07:41.620Z,8.10
2022-08-27T06:08:41.608Z,8.90
2022-08-27T06:09:41.617Z,8.30
2022-08-27T06:10:41.582Z,8.50
2022-08-27T06:11:41.573Z,7.90
2022-08-27T06:12:41.574Z,7.80
2022-08-27T06:13:41.541Z,7.10
2022-08-27T06:14:41.519Z,7.30
2022-08-27T06:15:41.600Z,7.10
2022-08-27T06:16:41.533Z,8.20
2022-08-27T06:17:41.486Z,7.50
2022-08-27T06:18:41.476Z,7.20
2022-08-27T06:19:41.487Z,7.10
2022-08-27T06:20:41.442Z,7.20
2022-08-27T06:21:41.463Z,7.70
2022-08-27T06:22:41.508Z,8.10
2022-08-27T06:23:41.427Z,7.90
2022-08-27T06:24:41.498Z,9.20
2022-08-27T06:25:41.373Z,9.20
2022-08-27T06:26:41.361Z,7.40
2022-08-27T06:27:41.343Z,8.00
2022-08-27T06:28:41.362Z,6.60
2022-08-27T06:29:41.317Z,7.80
2022-08-27T06:30:41.425Z,6.90
2022-08-27T06:31:41.296Z,7.40
2022-08-27T06:32:41.306Z,7.40
2022-08-27T06:33:41.271Z,6.90
2022-08-27T06:34:41.258Z,7.30
2022-08-27T06:35:41.237Z,8.20
2022-08-27T06:36:41.227Z,7.10
2022-08-27T06:37:41.230Z,8.00
2022-08-27T06:38:41.201Z,6.80
2022-08-27T06:39:41.181Z,6.90
2022-08-27T06:40:41.178Z,8.40
2022-08-27T06:41:41.163Z,7.10
2022-08-27T06:42:41.145Z,6.90
2022-08-27T06:43:41.214Z,6.80
2022-08-27T06:44:41.116Z,8.10
2022-08-27T06:45:41.117Z,7.50
2022-08-27T06:46:41.214Z,6.50
2022-08-27T06:47:41.076Z,9.40
2022-08-27T06:48:41.192Z,6.80
2022-08-27T06:49:41.047Z,8.90
2022-08-27T06:50:41.048Z,6.90
2022-08-27T06:51:41.025Z,7.20
2022-08-27T06:52:41.006Z,7.00
2022-08-27T06:53:41.013Z,7.50
2022-08-27T06:54:40.977Z,6.60
2022-08-27T06:55:40.999Z,7.90
2022-08-27T06:56:40.983Z,6.30
2022-08-27T06:57:40.949Z,6.40
2022-08-27T06:58:40.933Z,6.20
2022-08-27T06:59:40.940Z,9.20
2022-08-27T07:00:40.907Z,6.30
2022-08-27T07:01:41.017Z,6.50
2022-08-27T07:02:40.911Z,7.50
2022-08-27T07:03:40.867Z,6.40
2022-08-27T07:04:40.871Z,7.10
2022-08-27T07:05:40.839Z,6.00
2022-08-27T07:06:40.837Z,6.70
2022-08-27T07:07:46.782Z,5.60
2022-08-27T07:08:40.825Z,6.40
2022-08-27T07:09:40.796Z,5.60
2022-08-27T07:10:40.778Z,5.70
2022-08-27T07:11:40.754Z,5.90
2022-08-27T07:12:40.744Z,6.80
2022-08-27T07:13:40.754Z,6.00
2022-08-27T07:14:40.735Z,5.90
2022-08-27T07:15:40.797Z,5.60
2022-08-27T07:16:41.051Z,5.30
2022-08-27T07:17:40.692Z,6.30
2022-08-27T07:18:40.652Z,5.50
2022-08-27T07:19:40.934Z,5.70
2022-08-27T07:20:40.637Z,6.00
2022-08-27T07:21:40.640Z,5.30
2022-08-27T07:22:40.606Z,5.20
2022-08-27T07:23:40.587Z,5.80
2022-08-27T07:24:40.591Z,5.20
2022-08-27T07:25:40.560Z,6.20
2022-08-27T07:26:40.589Z,5.70
2022-08-27T07:27:40.535Z,8.40
2022-08-27T07:28:40.552Z,14.20
2022-08-27T07:29:40.508Z,6.80
2022-08-27T07:30:40.518Z,7.30
2022-08-27T07:31:40.473Z,11.00
2022-08-27T07:32:40.510Z,6.70
2022-08-27T07:33:40.494Z,5.50
2022-08-27T07:34:40.479Z,6.30
2022-08-27T07:35:40.429Z,26.40
2022-08-27T07:36:40.414Z,23.30
2022-08-27T07:37:40.404Z,27.70
2022-08-27T07:38:40.384Z,14.00
2022-08-27T07:39:40.387Z,18.60
2022-08-27T07:40:40.363Z,5.60
2022-08-27T07:41:40.341Z,6.40
2022-08-27T07:42:40.352Z,6.20
2022-08-27T07:43:40.356Z,7.40
2022-08-27T07:44:40.299Z,6.20
2022-08-27T07:45:40.326Z,6.30
2022-08-27T07:46:43.485Z,6.00
2022-08-27T07:47:40.266Z,6.40
2022-08-27T07:48:40.247Z,6.10
2022-08-27T07:49:40.234Z,6.20
2022-08-27T07:50:40.227Z,7.40
2022-08-27T07:51:40.232Z,5.80
2022-08-27T07:52:40.199Z,6.00
2022-08-27T07:53:40.176Z,5.40
2022-08-27T07:54:40.172Z,5.70
2022-08-27T07:55:40.208Z,5.80
2022-08-27T07:56:40.132Z,6.90
2022-08-27T07:57:40.124Z,6.60
2022-08-27T07:58:40.105Z,6.20
2022-08-27T07:59:40.142Z,5.70
2022-08-27T08:00:40.108Z,4.90
2022-08-27T08:01:40.097Z,4.90
2022-08-27T08:02:40.111Z,7.00
2022-08-27T08:03:40.039Z,6.20
2022-08-27T08:04:40.056Z,5.00
2022-08-27T08:05:40.030Z,5.70
2022-08-27T08:06:39.998Z,5.20
2022-08-27T08:07:39.999Z,6.60
2022-08-27T08:08:39.976Z,7.90
2022-08-27T08:09:39.984Z,5.90
2022-08-27T08:10:39.950Z,5.60
2022-08-27T08:11:39.930Z,6.40
2022-08-27T08:12:39.949Z,6.20
2022-08-27T08:13:39.905Z,5.30
2022-08-27T08:14:39.925Z,5.20
2022-08-27T08:15:39.876Z,6.30
2022-08-27T08:16:39.920Z,6.00
2022-08-27T08:17:39.851Z,6.00
2022-08-27T08:18:39.848Z,7.50
2022-08-27T08:19:39.851Z,5.40
2022-08-27T08:20:57.044Z,4.90
2022-08-27T08:21:39.801Z,5.80
2022-08-27T08:22:39.794Z,4.20
2022-08-27T08:23:39.763Z,5.10
2022-08-27T08:24:39.767Z,5.00
2022-08-27T08:25:39.774Z,5.20
2022-08-27T08:26:39.725Z,6.80
2022-08-27T08:27:39.723Z,5.90
2022-08-27T08:28:39.708Z,5.20
2022-08-27T08:29:39.690Z,4.70
2022-08-27T08:30:39.805Z,5.50
2022-08-27T08:31:39.664Z,5.00
2022-08-27T08:32:39.673Z,5.10
2022-08-27T08:33:39.647Z,6.80
2022-08-27T08:34:39.636Z,4.30
2022-08-27T08:35:40.951Z,4.30
2022-08-27T08:36:39.623Z,5.40
2022-08-27T08:37:39.587Z,5.00
2022-08-27T08:38:39.567Z,5.10
2022-08-27T08:39:39.569Z,5.60
2022-08-27T08:40:39.533Z,4.50
2022-08-27T08:41:39.557Z,4.80
2022-08-27T08:42:39.519Z,5.30
2022-08-27T08:43:39.539Z,5.70
2022-08-27T08:44:39.499Z,4.90
2022-08-27T08:45:39.598Z,4.90
2022-08-27T08:46:39.459Z,4.40
2022-08-27T08:47:39.448Z,4.80
2022-08-27T08:48:39.468Z,5.10
2022-08-27T08:49:39.419Z,4.10
2022-08-27T08:50:39.412Z,5.80
2022-08-27T08:51:39.398Z,6.60
2022-08-27T08:52:39.395Z,4.00
2022-08-27T08:53:45.432Z,4.60
2022-08-27T08:54:39.380Z,4.10
2022-08-27T08:55:39.337Z,4.90
2022-08-27T08:56:45.390Z,4.20
2022-08-27T08:57:39.346Z,4.80
2022-08-27T08:58:39.298Z,4.30
2022-08-27T08:59:39.363Z,4.20
2022-08-27T09:00:39.303Z,5.60
2022-08-27T09:01:39.371Z,6.30
2022-08-27T09:02:39.500Z,5.40
2022-08-27T09:03:39.263Z,4.60
2022-08-27T09:04:39.242Z,4.20
2022-08-27T09:05:39.934Z,4.40
2022-08-27T09:06:39.217Z,5.20
2022-08-27T09:07:39.188Z,4.30
2022-08-27T09:08:41.830Z,4.00
2022-08-27T09:09:39.156Z,6.30
2022-08-27T09:10:39.153Z,4.90
2022-08-27T09:11:39.170Z,5.00
2022-08-27T09:12:39.141Z,4.70
2022-08-27T09:13:39.117Z,4.60
2022-08-27T09:14:39.094Z,4.10
2022-08-27T09:15:39.073Z,5.30
2022-08-27T09:16:39.220Z,4.40
2022-08-27T09:17:39.128Z,4.80
2022-08-27T09:18:39.052Z,5.00
2022-08-27T09:19:39.051Z,5.00
2022-08-27T09:20:39.012Z,6.90
2022-08-27T09:21:39.047Z,5.10
2022-08-27T09:22:39.002Z,4.20
2022-08-27T09:23:39.005Z,5.90
2022-08-27T09:24:38.956Z,5.50
2022-08-27T09:25:38.937Z,5.50
2022-08-27T09:26:38.949Z,4.40
2022-08-27T09:27:38.902Z,6.40
2022-08-27T09:28:38.983Z,4.30
2022-08-27T09:29:38.935Z,4.50
2022-08-27T09:30:38.941Z,5.20
2022-08-27T09:31:38.871Z,5.00
2022-08-27T09:32:38.904Z,5.20
2022-08-27T09:33:44.678Z,5.30
2022-08-27T09:34:38.831Z,5.10
2022-08-27T09:35:38.813Z,5.30
2022-08-27T09:36:38.791Z,5.80
2022-08-27T09:37:38.801Z,4.50
2022-08-27T09:38:38.779Z,4.60
2022-08-27T09:39:38.754Z,4.20
2022-08-27T09:40:38.794Z,4.30
2022-08-27T09:41:38.729Z,4.30
2022-08-27T09:42:38.784Z,4.40
2022-08-27T09:43:38.751Z,4.30
2022-08-27T09:44:38.828Z,4.30
2022-08-27T09:45:38.801Z,4.30
2022-08-27T09:46:38.647Z,4.10
2022-08-27T09:47:38.635Z,4.00
2022-08-27T09:48:38.680Z,3.90
2022-08-27T09:49:38.610Z,4.20
2022-08-27T09:50:42.986Z,4.70
2022-08-27T09:51:38.596Z,4.80
2022-08-27T09:52:38.596Z,5.10
2022-08-27T09:53:38.592Z,4.30
2022-08-27T09:54:38.563Z,3.60
2022-08-27T09:55:39.476Z,4.40
2022-08-27T09:56:38.548Z,5.60
2022-08-27T09:57:38.527Z,5.10
2022-08-27T09:58:39.739Z,5.00
2022-08-27T09:59:38.470Z,3.60
2022-08-27T10:00:38.492Z,4.00
2022-08-27T10:01:38.531Z,3.60
2022-08-27T10:02:38.465Z,4.50
2022-08-27T10:03:38.504Z,4.50
2022-08-27T10:04:50.485Z,4.30
2022-08-27T10:05:38.401Z,5.60
2022-08-27T10:06:38.384Z,7.20
2022-08-27T10:07:38.424Z,4.60
2022-08-27T10:08:38.359Z,4.70
2022-08-27T10:09:38.406Z,4.30
2022-08-27T10:10:38.351Z,4.00
2022-08-27T10:11:38.346Z,4.20
2022-08-27T10:12:38.332Z,5.10
2022-08-27T10:13:38.335Z,3.90
2022-08-27T10:14:38.302Z,3.70
2022-08-27T10:15:43.175Z,3.90
2022-08-27T10:16:38.369Z,5.60
2022-08-27T10:17:38.260Z,4.20
2022-08-27T10:18:38.250Z,3.80
2022-08-27T10:19:38.269Z,4.40
2022-08-27T10:20:38.201Z,4.70
2022-08-27T10:21:38.201Z,5.50
2022-08-27T10:22:38.193Z,5.00
2022-08-27T10:23:38.194Z,5.50
2022-08-27T10:24:38.151Z,4.90
2022-08-27T10:25:38.191Z,5.30
2022-08-27T10:26:38.136Z,5.80
2022-08-27T10:27:38.144Z,4.80
2022-08-27T10:28:38.121Z,4.60
2022-08-27T10:29:38.132Z,4.70
2022-08-27T10:30:38.058Z,6.00
2022-08-27T10:31:38.198Z,5.50
2022-08-27T10:32:38.059Z,4.60
2022-08-27T10:33:38.105Z,4.40
2022-08-27T10:34:38.099Z,5.10
2022-08-27T10:35:40.557Z,5.10
2022-08-27T10:36:38.068Z,5.20
2022-08-27T10:37:40.473Z,4.60
2022-08-27T10:38:42.399Z,4.80
2022-08-27T10:39:37.996Z,4.90
2022-08-27T10:40:38.031Z,7.20
2022-08-27T10:41:37.956Z,5.40
2022-08-27T10:42:37.900Z,5.00
2022-08-27T10:43:37.954Z,7.20
2022-08-27T10:44:37.918Z,5.50
2022-08-27T10:47:53.956Z,4.60
2022-08-27T10:48:54.916Z,4.90
2022-08-27T10:49:54.924Z,5.70
2022-08-27T10:50:54.890Z,5.60
2022-08-27T10:51:54.878Z,6.20
2022-08-27T10:52:54.861Z,5.20
2022-08-27T10:53:54.849Z,5.70
2022-08-27T10:54:54.845Z,6.00
2022-08-27T10:55:54.826Z,6.80
2022-08-27T10:57:14.376Z,5.50
2022-08-27T10:58:00.326Z,6.40
2022-08-27T10:58:54.808Z,7.10
2022-08-27T10:59:54.779Z,5.30
2022-08-27T11:00:54.787Z,6.20
2022-08-27T11:01:54.774Z,5.50
2022-08-27T11:02:54.749Z,5.70
2022-08-27T11:03:54.720Z,5.80
2022-08-27T11:04:54.731Z,4.80
2022-08-27T11:05:54.691Z,7.00
2022-08-27T11:06:54.667Z,5.20
2022-08-27T11:07:54.711Z,5.10
2022-08-27T11:08:54.642Z,7.10
2022-08-27T11:09:56.976Z,5.60
2022-08-27T11:10:54.654Z,5.40
2022-08-27T11:12:13.758Z,5.10
2022-08-27T11:12:54.620Z,6.90
2022-08-27T11:13:54.592Z,5.10
2022-08-27T11:14:54.573Z,5.30
2022-08-27T11:15:54.548Z,4.90
2022-08-27T11:16:54.608Z,5.00
2022-08-27T11:17:54.526Z,5.40
2022-08-27T11:18:54.519Z,4.90
2022-08-27T11:19:54.669Z,6.50
2022-08-27T11:20:54.482Z,6.30
2022-08-27T11:21:54.499Z,6.60
2022-08-27T11:22:54.509Z,6.00
2022-08-27T11:23:54.474Z,4.80
2022-08-27T11:24:54.438Z,5.40
2022-08-27T11:25:54.456Z,5.60
2022-08-27T11:26:54.416Z,4.50
2022-08-27T11:27:54.467Z,5.30
2022-08-27T11:28:54.388Z,5.50
2022-08-27T11:29:59.893Z,9.00
2022-08-27T11:30:54.359Z,14.30
2022-08-27T11:31:54.444Z,6.70
2022-08-27T11:32:54.329Z,5.70
2022-08-27T11:33:54.323Z,6.70
2022-08-27T11:34:54.317Z,5.70
2022-08-27T11:35:54.300Z,5.30
2022-08-27T11:36:54.726Z,5.20
2022-08-27T11:37:54.258Z,6.00
2022-08-27T11:38:54.284Z,5.10
2022-08-27T11:39:54.279Z,6.90
2022-08-27T11:40:54.221Z,6.10
2022-08-27T11:41:54.219Z,4.90
2022-08-27T11:42:54.224Z,6.10
2022-08-27T11:43:54.216Z,6.90
2022-08-27T11:44:54.181Z,5.80
2022-08-27T11:45:54.161Z,7.60
2022-08-27T11:46:54.176Z,5.30
2022-08-27T11:47:54.131Z,6.20
2022-08-27T11:48:54.954Z,5.90
2022-08-27T11:49:54.111Z,5.50
2022-08-27T11:50:54.088Z,5.50
2022-08-27T11:51:54.077Z,7.60
2022-08-27T11:52:54.056Z,6.70
2022-08-27T11:53:54.065Z,6.10
2022-08-27T11:54:54.031Z,5.30
2022-08-27T11:55:54.028Z,7.40
2022-08-27T11:56:54.034Z,6.30
2022-08-27T11:57:54.009Z,5.30
2022-08-27T11:58:53.986Z,5.90
2022-08-27T11:59:53.986Z,4.90
2022-08-27T12:00:53.993Z,5.90
2022-08-27T12:01:53.939Z,5.30
2022-08-27T12:02:53.961Z,5.30
2022-08-27T12:03:54.004Z,6.10
2022-08-27T12:04:53.919Z,7.30
2022-08-27T12:05:54.535Z,5.70
2022-08-27T12:06:53.886Z,7.20
2022-08-27T12:07:53.878Z,4.50
2022-08-27T12:08:53.850Z,5.50
2022-08-27T12:09:53.856Z,6.20
2022-08-27T12:10:53.849Z,5.70
2022-08-27T12:11:56.544Z,5.20
2022-08-27T12:12:53.796Z,5.30
2022-08-27T12:13:53.785Z,5.80
2022-08-27T12:14:53.773Z,31.90
2022-08-27T12:15:53.801Z,6.30
2022-08-27T12:16:53.754Z,5.70
2022-08-27T12:17:53.735Z,4.80
2022-08-27T12:18:53.714Z,13.50
2022-08-27T12:19:53.712Z,11.20
2022-08-27T12:20:53.711Z,6.10
2022-08-27T12:21:53.692Z,6.50
2022-08-27T12:22:53.706Z,5.70
2022-08-27T12:23:53.663Z,7.90
2022-08-27T12:24:55.661Z,6.40
2022-08-27T12:25:53.644Z,5.30
2022-08-27T12:26:53.718Z,5.80
2022-08-27T12:27:53.628Z,9.20
2022-08-27T12:28:53.587Z,5.70
2022-08-27T12:29:53.596Z,5.30
2022-08-27T12:30:53.560Z,5.20
2022-08-27T12:31:53.605Z,6.10
2022-08-27T12:32:53.531Z,5.90
2022-08-27T12:33:53.528Z,6.00
2022-08-27T12:34:57.717Z,6.40
2022-08-27T12:35:53.499Z,5.90
2022-08-27T12:36:53.488Z,5.50
2022-08-27T12:37:56.845Z,8.00
2022-08-27T12:38:53.458Z,6.00
2022-08-27T12:39:53.506Z,5.50
2022-08-27T12:40:53.431Z,6.10
2022-08-27T12:41:53.427Z,5.40
2022-08-27T12:42:53.402Z,5.50
2022-08-27T12:43:53.420Z,11.50
2022-08-27T12:44:53.378Z,11.90
2022-08-27T12:45:53.395Z,7.70
2022-08-27T12:46:53.396Z,6.70
2022-08-27T12:47:53.346Z,6.70
2022-08-27T12:48:53.321Z,6.80
2022-08-27T12:49:55.810Z,5.50
2022-08-27T12:50:53.317Z,5.70
2022-08-27T12:51:53.315Z,6.10
2022-08-27T12:52:53.277Z,7.60
2022-08-27T12:53:53.325Z,6.10
2022-08-27T12:54:53.243Z,15.50
2022-08-27T12:55:53.245Z,8.60
2022-08-27T12:56:53.228Z,7.10
2022-08-27T12:57:53.241Z,8.70
2022-08-27T12:58:53.202Z,7.20
2022-08-27T12:59:53.192Z,5.40
2022-08-27T13:00:53.281Z,4.40
2022-08-27T13:01:53.255Z,4.90
2022-08-27T13:02:53.141Z,7.00
2022-08-27T13:03:53.133Z,5.30
2022-08-27T13:04:53.125Z,6.10
2022-08-27T13:05:53.130Z,5.10
2022-08-27T13:06:53.093Z,5.50
2022-08-27T13:07:53.086Z,6.60
2022-08-27T13:08:53.069Z,5.40
2022-08-27T13:09:56.910Z,8.90
2022-08-27T13:10:53.040Z,4.50
2022-08-27T13:11:53.055Z,6.10
2022-08-27T13:12:53.032Z,5.50
2022-08-27T13:13:53.112Z,5.00
2022-08-27T13:14:56.795Z,5.20
2022-08-27T13:15:53.040Z,6.30
2022-08-27T13:16:52.969Z,5.40
2022-08-27T13:17:52.967Z,4.70
2022-08-27T13:18:52.944Z,5.40
2022-08-27T13:19:52.925Z,5.90